Time;durP1;ratioP1;P1;durP2;ratioP2;P2;SDS_P1;SDS_P2;PMS_P1;PMS_P2;Temp;Humidity;BMP_temperature;BMP_pressure;BME280_temperature;BME280_humidity;BME280_pressure;Samples;Min_cycle;Max_cycle;Signal;HPM_P1;HPM_P2
2021/07/06 00:00:32;;;;;;;7.88;3.63;;;17.10;99.90;;;;;;5063489;28;20104;-74
2021/07/06 00:02:58;;;;;;;5.88;3.38;;;17.00;99.90;;;;;;5036955;28;20111;-74
2021/07/06 00:05:24;;;;;;;7.55;2.92;;;17.00;99.90;;;;;;5067804;28;20512;-74
2021/07/06 00:07:50;;;;;;;7.68;3.10;;;17.10;99.90;;;;;;5039181;28;20017;-74
2021/07/06 00:10:19;;;;;;;5.63;3.28;;;17.00;99.90;;;;;;5054744;28;20386;-74
2021/07/06 00:12:44;;;;;;;;;;;17.00;99.90;;;;;;5055021;28;20033;-74
2021/07/06 00:15:12;;;;;;;3.42;2.55;;;17.00;99.90;;;;;;5054690;28;20537;-74
2021/07/06 00:17:40;;;;;;;6.95;3.22;;;17.10;99.90;;;;;;5036850;28;20025;-74
2021/07/06 00:20:09;;;;;;;4.80;3.15;;;17.10;99.90;;;;;;5055110;28;20017;-75
2021/07/06 00:22:35;;;;;;;4.57;2.80;;;17.00;99.90;;;;;;5054594;28;20021;-75
2021/07/06 00:25:01;;;;;;;4.63;3.08;;;17.00;99.90;;;;;;5036424;28;20013;-74
2021/07/06 00:27:26;;;;;;;3.33;2.35;;;17.00;99.90;;;;;;5036673;28;20390;-74
2021/07/06 00:29:52;;;;;;;5.47;3.20;;;17.00;99.90;;;;;;5063072;28;20105;-74
2021/07/06 00:32:18;;;;;;;7.60;3.08;;;17.00;99.90;;;;;;5074339;28;20031;-74
2021/07/06 00:34:43;;;;;;;7.75;2.70;;;17.00;99.90;;;;;;5049079;28;20023;-74
2021/07/06 00:37:09;;;;;;;4.38;2.30;;;17.00;99.90;;;;;;5054284;28;20021;-74
2021/07/06 00:39:34;;;;;;;4.05;2.90;;;17.00;99.90;;;;;;5035979;28;20017;-74
2021/07/06 00:42:05;;;;;;;4.53;2.60;;;17.10;99.90;;;;;;5035938;28;20055;-74
2021/07/06 00:44:31;;;;;;;4.22;2.35;;;17.10;99.90;;;;;;5036301;28;20512;-74
2021/07/06 00:46:56;;;;;;;6.93;2.28;;;17.10;99.90;;;;;;5054651;28;20053;-74
2021/07/06 00:49:22;;;;;;;4.75;2.10;;;17.20;99.90;;;;;;5036137;28;20049;-74
2021/07/06 00:51:47;;;;;;;4.63;1.73;;;17.20;99.90;;;;;;5053876;28;20017;-74
2021/07/06 00:54:13;;;;;;;4.88;1.90;;;17.20;99.90;;;;;;5053738;28;20066;-74
2021/07/06 00:56:39;;;;;;;5.30;2.80;;;17.20;99.90;;;;;;5054150;28;20029;-74
2021/07/06 00:59:05;;;;;;;3.92;2.28;;;17.20;99.90;;;;;;5054355;28;20021;-74
2021/07/06 01:01:31;;;;;;;4.65;2.20;;;17.20;99.90;;;;;;5053702;28;20036;-74
2021/07/06 01:03:57;;;;;;;4.65;2.20;;;17.30;99.90;;;;;;5053588;28;20044;-74
2021/07/06 01:06:22;;;;;;;3.00;1.83;;;17.30;99.90;;;;;;5035902;28;20032;-75
2021/07/06 01:08:48;;;;;;;4.47;2.28;;;17.30;99.90;;;;;;5053964;28;20070;-74
2021/07/06 01:11:15;;;;;;;3.15;2.05;;;17.30;99.90;;;;;;5062630;28;20056;-74
2021/07/06 01:13:41;;;;;;;3.80;2.08;;;17.30;99.90;;;;;;5073959;28;20028;-74
2021/07/06 01:16:07;;;;;;;8.40;2.45;;;17.40;99.90;;;;;;5073276;28;20028;-75
2021/07/06 01:18:33;;;;;;;2.70;1.52;;;17.40;99.90;;;;;;5055637;28;20050;-74
2021/07/06 01:20:59;;;;;;;3.00;1.85;;;17.40;99.90;;;;;;5048764;28;20025;-75
2021/07/06 01:23:28;;;;;;;3.03;2.03;;;17.40;99.90;;;;;;5053792;28;20021;-76
2021/07/06 01:26:05;;;;;;;5.05;1.73;;;17.40;99.90;;;;;;5053602;28;20021;-77
2021/07/06 01:28:32;;;;;;;3.13;1.60;;;17.40;99.90;;;;;;5054334;28;20025;-76
2021/07/06 01:30:58;;;;;;;3.13;1.33;;;17.40;99.90;;;;;;5040141;28;20032;-80
2021/07/06 01:33:27;;;;;;;4.97;0.95;;;17.40;99.90;;;;;;5039414;28;20025;-79
2021/07/06 01:35:56;;;;;;;2.30;1.35;;;17.40;99.90;;;;;;5039820;28;20035;-79
2021/07/06 01:38:22;;;;;;;1.30;0.95;;;17.40;99.90;;;;;;5037412;28;20395;-79
2021/07/06 01:40:48;;;;;;;2.97;1.60;;;17.50;99.90;;;;;;5036225;28;20021;-79
2021/07/06 01:43:14;;;;;;;1.25;0.80;;;17.50;99.90;;;;;;5053878;28;20032;-79
2021/07/06 01:45:39;;;;;;;1.50;0.90;;;17.40;99.90;;;;;;5036367;28;20017;-79
2021/07/06 01:48:05;;;;;;;2.72;0.77;;;17.40;99.90;;;;;;5053752;28;20033;-79
2021/07/06 01:50:34;;;;;;;1.17;0.50;;;17.40;99.90;;;;;;5035809;28;20557;-79
2021/07/06 01:53:02;;;;;;;1.33;0.75;;;17.40;99.90;;;;;;5054103;28;20025;-79
2021/07/06 01:55:39;;;;;;;2.47;0.63;;;17.40;99.90;;;;;;5054782;28;20112;-79
2021/07/06 01:58:08;;;;;;;0.75;0.10;;;17.40;99.90;;;;;;5053528;28;20021;-78
2021/07/06 02:00:37;;;;;;;0.57;0.22;;;17.40;99.90;;;;;;5053594;28;20025;-78
2021/07/06 02:03:05;;;;;;;2.50;0.30;;;17.50;99.90;;;;;;5053792;28;20059;-78
2021/07/06 02:05:42;;;;;;;1.13;0.10;;;17.40;99.90;;;;;;5035538;28;20122;-78
2021/07/06 02:08:14;;;;;;;2.05;0.10;;;17.40;99.90;;;;;;5035560;28;20017;-78
2021/07/06 02:10:42;;;;;;;1.95;0.35;;;17.40;99.90;;;;;;5053440;28;20083;-79
2021/07/06 02:13:11;;;;;;;1.05;0.00;;;17.50;99.90;;;;;;5053453;28;20071;-79
2021/07/06 02:15:37;;;;;;;0.10;0.00;;;17.50;99.90;;;;;;5053381;28;20055;-79
2021/07/06 02:18:04;;;;;;;0.50;0.08;;;17.50;99.90;;;;;;5053955;28;20056;-79
2021/07/06 02:20:29;;;;;;;2.80;0.10;;;17.50;99.90;;;;;;5053203;28;20029;-79
2021/07/06 02:22:55;;;;;;;0.10;0.00;;;17.50;99.90;;;;;;5053211;28;20470;-78
2021/07/06 02:25:21;;;;;;;1.38;0.00;;;17.50;99.90;;;;;;5053538;28;20013;-78
2021/07/06 02:27:48;;;;;;;0.75;0.00;;;17.50;99.90;;;;;;5053631;28;20017;-78
2021/07/06 02:30:22;;;;;;;1.85;0.30;;;17.50;99.90;;;;;;5035748;28;20029;-78
2021/07/06 02:32:49;;;;;;;3.22;0.10;;;17.50;99.90;;;;;;5036129;28;20025;-78
2021/07/06 02:35:15;;;;;;;0.55;0.00;;;17.50;99.90;;;;;;5053309;28;20029;-78
2021/07/06 02:37:41;;;;;;;1.33;0.35;;;17.50;99.90;;;;;;5035659;28;20484;-78
2021/07/06 02:40:09;;;;;;;0.70;0.00;;;17.40;99.90;;;;;;5035420;28;20029;-78
2021/07/06 02:42:35;;;;;;;2.22;0.43;;;17.40;99.90;;;;;;5053263;28;20064;-79
2021/07/06 02:45:01;;;;;;;0.10;0.00;;;17.40;99.90;;;;;;5053386;28;20056;-79
2021/07/06 02:47:26;;;;;;;0.20;0.00;;;17.40;99.90;;;;;;5036659;28;20029;-79
2021/07/06 02:49:52;;;;;;;1.48;0.00;;;17.50;99.90;;;;;;5036149;28;20029;-79
2021/07/06 02:52:18;;;;;;;2.75;0.20;;;17.40;99.90;;;;;;5037928;28;20068;-79
2021/07/06 02:54:44;;;;;;;0.10;0.00;;;17.40;99.90;;;;;;5038305;28;20029;-79
2021/07/06 02:57:10;;;;;;;0.15;0.00;;;17.60;99.90;;;;;;5056140;28;20025;-79
2021/07/06 02:59:36;;;;;;;1.17;0.00;;;17.40;99.90;;;;;;5055520;28;20025;-79
2021/07/06 03:02:03;;;;;;;1.67;0.00;;;17.40;99.90;;;;;;5037848;28;20550;-79
2021/07/06 03:04:29;;;;;;;0.65;0.00;;;17.40;99.90;;;;;;5057833;28;20096;-79
2021/07/06 03:06:54;;;;;;;0.10;0.00;;;17.40;99.90;;;;;;5041327;28;20060;-78
2021/07/06 03:09:20;;;;;;;1.65;0.00;;;17.40;99.90;;;;;;5042014;28;20028;-78
2021/07/06 03:11:45;;;;;;;1.15;0.03;;;17.40;99.90;;;;;;5042982;28;20084;-79
2021/07/06 03:14:11;;;;;;;1.50;0.00;;;17.50;99.90;;;;;;5077556;28;20017;-79
2021/07/06 03:16:37;;;;;;;1.95;0.55;;;17.40;99.90;;;;;;5079593;28;20023;-79
2021/07/06 03:19:03;;;;;;;0.85;0.00;;;17.40;99.90;;;;;;5061188;28;20028;-78
2021/07/06 03:21:29;;;;;;;0.28;0.00;;;17.40;99.90;;;;;;5058043;28;20485;-78
2021/07/06 03:23:55;;;;;;;1.20;0.00;;;17.50;99.90;;;;;;5077429;28;20035;-78
2021/07/06 03:26:21;;;;;;;0.00;0.00;;;17.40;99.90;;;;;;5079029;28;20178;-78
2021/07/06 03:28:46;;;;;;;0.85;0.05;;;17.50;99.90;;;;;;5079773;28;20016;-79
2021/07/06 03:31:12;;;;;;;1.10;0.00;;;17.50;99.90;;;;;;5044790;28;20021;-78
2021/07/06 03:33:37;;;;;;;1.08;0.00;;;17.50;99.90;;;;;;5056714;28;20024;-78
2021/07/06 03:36:03;;;;;;;0.00;0.00;;;17.50;99.90;;;;;;5038310;28;20512;-78
2021/07/06 03:38:30;;;;;;;0.47;0.10;;;17.50;99.90;;;;;;5056182;28;20033;-78
2021/07/06 03:40:56;;;;;;;0.00;0.00;;;17.50;99.90;;;;;;5037855;28;20098;-78
2021/07/06 03:43:21;;;;;;;1.33;0.00;;;17.50;99.90;;;;;;5038231;28;20041;-78
2021/07/06 03:45:47;;;;;;;0.03;0.00;;;17.50;99.90;;;;;;5038221;28;20032;-78
2021/07/06 03:48:13;;;;;;;0.10;0.00;;;17.50;99.90;;;;;;5038494;28;20021;-78
2021/07/06 03:50:39;;;;;;;0.40;0.00;;;17.50;99.90;;;;;;5046472;28;20107;-78
2021/07/06 03:53:06;;;;;;;0.13;0.00;;;17.50;99.90;;;;;;5075909;28;20037;-78
2021/07/06 03:55:32;;;;;;;0.10;0.00;;;17.50;99.90;;;;;;5057726;28;20111;-78
2021/07/06 03:57:57;;;;;;;0.70;0.00;;;17.50;99.90;;;;;;5075570;28;20048;-78
2021/07/06 04:00:28;;;;;;;0.10;0.10;;;17.50;99.90;;;;;;5056941;28;20421;-78
2021/07/06 04:02:57;;;;;;;0.82;0.15;;;17.60;99.90;;;;;;5076667;28;20389;-78
2021/07/06 04:05:23;;;;;;;0.10;0.00;;;17.50;99.90;;;;;;5051950;28;20029;-78
2021/07/06 04:07:49;;;;;;;1.15;0.22;;;17.60;99.90;;;;;;5056735;28;20084;-78
2021/07/06 04:10:16;;;;;;;0.85;0.00;;;17.60;99.90;;;;;;5046026;28;20047;-79
2021/07/06 04:12:43;;;;;;;0.10;0.00;;;17.60;99.90;;;;;;5059505;28;20039;-79
2021/07/06 04:15:11;;;;;;;2.28;0.08;;;17.70;99.90;;;;;;5059536;28;20020;-79
2021/07/06 04:17:38;;;;;;;0.20;0.00;;;17.80;99.90;;;;;;5062552;28;20123;-79
2021/07/06 04:20:09;;;;;;;1.02;0.00;;;17.80;99.90;;;;;;5077127;28;20029;-80
2021/07/06 04:22:36;;;;;;;2.00;0.00;;;17.90;99.90;;;;;;5064975;28;20379;-80
2021/07/06 04:25:02;;;;;;;0.15;0.00;;;17.90;99.90;;;;;;5064628;28;20025;-79
2021/07/06 04:27:28;;;;;;;0.20;0.00;;;17.90;99.90;;;;;;5048337;28;20043;-79
2021/07/06 04:29:54;;;;;;;1.63;0.20;;;18.40;99.90;;;;;;5048170;28;20021;-79
2021/07/06 04:32:19;;;;;;;0.98;0.10;;;17.90;99.90;;;;;;5063339;28;20021;-80
2021/07/06 04:34:45;;;;;;;0.57;0.00;;;17.80;99.90;;;;;;5061767;28;20478;-79
2021/07/06 04:37:12;;;;;;;0.10;0.00;;;17.80;99.90;;;;;;5060817;28;20478;-79
2021/07/06 04:39:37;;;;;;;0.63;0.00;;;17.70;99.90;;;;;;5061389;28;20096;-79
2021/07/06 04:42:03;;;;;;;3.22;0.10;;;17.70;99.90;;;;;;5061417;28;20063;-79
2021/07/06 04:44:29;;;;;;;0.20;0.10;;;17.70;99.90;;;;;;5061963;28;20367;-79
2021/07/06 04:46:55;;;;;;;2.72;0.00;;;17.70;99.90;;;;;;5044276;28;20047;-79
2021/07/06 04:49:20;;;;;;;1.85;0.00;;;17.70;99.90;;;;;;5061235;28;20025;-79
2021/07/06 04:51:46;;;;;;;0.98;0.15;;;17.70;99.90;;;;;;5043798;28;20482;-79
2021/07/06 04:54:12;;;;;;;3.10;0.00;;;17.80;99.90;;;;;;5043855;28;20071;-79
2021/07/06 04:56:37;;;;;;;1.17;0.00;;;17.80;99.90;;;;;;5043781;28;20021;-79
2021/07/06 04:59:03;;;;;;;0.93;0.08;;;17.80;99.90;;;;;;5043074;28;20021;-79
2021/07/06 05:01:29;;;;;;;1.52;0.10;;;17.80;99.90;;;;;;5043017;28;20040;-79
2021/07/06 05:03:56;;;;;;;0.10;0.00;;;17.90;99.90;;;;;;5061636;28;20092;-79
2021/07/06 05:06:22;;;;;;;1.33;0.00;;;17.90;99.90;;;;;;5055935;28;20016;-75
2021/07/06 05:08:48;;;;;;;2.03;0.32;;;17.90;99.90;;;;;;5055836;28;20024;-78
2021/07/06 05:11:15;;;;;;;0.10;0.05;;;18.00;99.90;;;;;;5069528;28;20036;-78
2021/07/06 05:13:41;;;;;;;1.40;0.00;;;18.30;99.90;;;;;;5076792;28;20048;-78
2021/07/06 05:16:07;;;;;;;0.95;0.10;;;18.00;99.90;;;;;;5077054;28;20032;-78
2021/07/06 05:18:32;;;;;;;0.38;0.20;;;18.00;99.90;;;;;;5079585;28;20358;-78
2021/07/06 05:20:58;;;;;;;0.73;0.00;;;18.00;99.90;;;;;;5066084;28;20028;-77
2021/07/06 05:23:24;;;;;;;0.55;0.00;;;18.10;99.90;;;;;;5039903;28;20017;-77
2021/07/06 05:25:49;;;;;;;0.85;0.00;;;18.00;99.90;;;;;;5057847;28;20025;-76
2021/07/06 05:28:15;;;;;;;3.03;0.20;;;18.10;99.90;;;;;;5035740;28;20045;-75
2021/07/06 05:30:41;;;;;;;0.10;0.00;;;18.10;99.90;;;;;;5053418;28;20436;-75
2021/07/06 05:33:06;;;;;;;0.77;0.00;;;18.10;99.90;;;;;;5053396;28;20037;-75
2021/07/06 05:35:32;;;;;;;2.65;0.20;;;18.20;99.90;;;;;;5053558;28;20013;-74
2021/07/06 05:38:00;;;;;;;0.10;0.00;;;18.20;99.90;;;;;;5053362;28;20036;-75
2021/07/06 05:40:25;;;;;;;1.17;0.30;;;18.30;99.90;;;;;;5035551;28;20066;-73
2021/07/06 05:42:51;;;;;;;0.55;0.03;;;18.40;99.90;;;;;;5053759;28;20021;-77
2021/07/06 05:45:21;;;;;;;1.90;0.00;;;18.40;99.90;;;;;;5060873;28;20039;-79
2021/07/06 05:47:47;;;;;;;1.65;0.00;;;18.50;99.90;;;;;;5036471;28;20112;-74
2021/07/06 05:50:15;;;;;;;0.50;0.00;;;18.60;99.90;;;;;;5053017;28;20051;-74
2021/07/06 05:52:40;;;;;;;2.92;0.10;;;18.60;99.90;;;;;;5053150;28;20067;-76
2021/07/06 05:55:08;;;;;;;4.75;0.22;;;18.70;99.90;;;;;;5053526;28;20107;-77
2021/07/06 05:57:36;;;;;;;2.40;0.00;;;18.70;99.90;;;;;;5067133;28;20024;-75
2021/07/06 06:00:07;;;;;;;3.17;0.00;;;18.70;99.90;;;;;;5051258;28;20025;-74
2021/07/06 06:02:36;;;;;;;1.85;0.15;;;18.80;99.90;;;;;;5053186;28;20024;-74
2021/07/06 06:05:03;;;;;;;2.60;0.40;;;18.80;99.90;;;;;;5053120;28;20029;-74
2021/07/06 06:07:29;;;;;;;0.85;0.22;;;18.80;99.90;;;;;;5034537;28;20055;-74
2021/07/06 06:09:54;;;;;;;2.30;0.10;;;18.90;99.90;;;;;;5035040;28;20474;-74
2021/07/06 06:12:20;;;;;;;1.50;0.00;;;18.90;99.90;;;;;;5034912;28;20041;-74
2021/07/06 06:14:45;;;;;;;0.55;0.20;;;18.90;99.90;;;;;;5053485;28;20425;-74
2021/07/06 06:17:11;;;;;;;1.35;0.10;;;19.00;99.90;;;;;;5052820;28;20558;-74
2021/07/06 06:19:37;;;;;;;0.47;0.00;;;19.00;99.90;;;;;;5052782;28;20040;-74
2021/07/06 06:22:03;;;;;;;1.05;0.00;;;19.00;99.90;;;;;;5052945;28;20067;-74
2021/07/06 06:24:29;;;;;;;2.15;0.00;;;19.00;99.90;;;;;;5035247;28;20024;-74
2021/07/06 06:26:55;;;;;;;0.00;0.00;;;19.00;99.90;;;;;;5053384;28;20029;-74
2021/07/06 06:29:21;;;;;;;1.45;0.00;;;19.10;99.90;;;;;;5052455;28;20032;-74
2021/07/06 06:31:47;;;;;;;5.80;0.00;;;19.10;99.90;;;;;;5034842;28;20021;-74
2021/07/06 06:34:13;;;;;;;0.38;0.00;;;19.20;99.90;;;;;;5052757;28;20036;-74
2021/07/06 06:36:39;;;;;;;0.47;0.10;;;19.20;99.90;;;;;;5052833;28;20025;-74
2021/07/06 06:39:06;;;;;;;0.20;0.03;;;19.30;99.90;;;;;;5054617;28;20021;-74
2021/07/06 06:41:32;;;;;;;0.77;0.00;;;19.30;99.90;;;;;;5056430;28;20033;-74
2021/07/06 06:43:57;;;;;;;1.38;0.00;;;19.40;99.90;;;;;;5056896;28;20025;-74
2021/07/06 06:46:27;;;;;;;1.65;0.00;;;19.40;99.90;;;;;;5058414;28;20074;-74
2021/07/06 06:48:53;;;;;;;0.00;0.00;;;19.50;99.90;;;;;;5076357;28;20103;-74
2021/07/06 06:51:18;;;;;;;4.13;0.00;;;19.50;99.90;;;;;;5058461;28;20020;-74
2021/07/06 06:53:45;;;;;;;2.30;0.00;;;19.50;99.90;;;;;;5058749;28;20031;-74
2021/07/06 06:56:11;;;;;;;1.05;0.00;;;19.50;99.90;;;;;;5076320;28;20024;-74
2021/07/06 06:58:36;;;;;;;0.38;0.00;;;19.50;99.90;;;;;;5071991;28;20086;-74
2021/07/06 07:01:02;;;;;;;1.70;0.00;;;19.60;99.90;;;;;;5056626;28;20107;-74
2021/07/06 07:03:28;;;;;;;2.78;0.38;;;19.70;99.90;;;;;;5056129;28;20074;-74
2021/07/06 07:05:54;;;;;;;1.70;0.08;;;19.70;99.90;;;;;;5056433;28;20021;-74
2021/07/06 07:08:20;;;;;;;0.00;0.00;;;19.80;99.90;;;;;;5038257;28;20025;-74
2021/07/06 07:10:48;;;;;;;0.13;0.00;;;19.90;99.90;;;;;;5056032;28;20029;-74
2021/07/06 07:13:14;;;;;;;1.02;0.05;;;19.90;99.90;;;;;;5055943;28;20025;-74
2021/07/06 07:15:40;;;;;;;1.08;0.10;;;19.90;99.90;;;;;;5039706;28;20032;-74
2021/07/06 07:18:09;;;;;;;1.90;0.00;;;19.80;99.90;;;;;;5038115;28;20166;-74
2021/07/06 07:20:36;;;;;;;0.50;0.00;;;19.80;99.90;;;;;;5037922;28;20112;-74
2021/07/06 07:23:01;;;;;;;1.08;0.00;;;19.70;99.90;;;;;;5055823;28;20470;-74
2021/07/06 07:25:27;;;;;;;3.40;0.10;;;19.50;99.90;;;;;;5037851;28;20017;-74
2021/07/06 07:27:53;;;;;;;0.38;0.00;;;19.60;99.90;;;;;;5037842;28;20044;-74
2021/07/06 07:30:20;;;;;;;0.00;0.00;;;19.60;99.90;;;;;;5055636;28;20398;-74
2021/07/06 07:32:47;;;;;;;0.68;0.00;;;19.60;99.90;;;;;;5055792;28;20036;-75
2021/07/06 07:35:13;;;;;;;0.10;0.00;;;19.60;99.90;;;;;;5073104;28;20052;-74
2021/07/06 07:37:42;;;;;;;2.42;0.25;;;19.70;99.90;;;;;;5075585;28;20528;-74
2021/07/06 07:40:10;;;;;;;1.75;0.00;;;19.50;99.90;;;;;;5075711;28;20033;-74
2021/07/06 07:42:36;;;;;;;0.47;0.20;;;19.50;99.90;;;;;;5057650;28;20025;-74
2021/07/06 07:45:02;;;;;;;2.92;0.00;;;19.60;99.90;;;;;;5057339;28;20278;-74
2021/07/06 07:47:28;;;;;;;2.05;0.30;;;19.70;99.90;;;;;;5056707;28;20025;-74
2021/07/06 07:49:53;;;;;;;1.77;0.00;;;19.80;99.90;;;;;;5074839;28;20036;-74
2021/07/06 07:52:19;;;;;;;0.45;0.00;;;20.10;99.90;;;;;;5075298;28;20048;-74
2021/07/06 07:54:45;;;;;;;0.20;0.00;;;20.50;99.90;;;;;;5057231;28;20024;-74
2021/07/06 07:57:10;;;;;;;0.30;0.00;;;20.80;99.90;;;;;;5057425;28;20021;-75
2021/07/06 07:59:39;;;;;;;3.08;0.20;;;21.10;99.90;;;;;;5057034;28;20024;-75
2021/07/06 08:02:05;;;;;;;;;;;21.30;99.90;;;;;;5075990;28;20038;-75
2021/07/06 08:04:31;;;;;;;1.75;0.00;;;21.50;99.90;;;;;;5073238;28;20001;-75
2021/07/06 08:06:57;;;;;;;0.05;0.00;;;21.60;99.90;;;;;;5056922;28;20021;-74
2021/07/06 08:09:22;;;;;;;1.77;0.00;;;21.60;99.90;;;;;;5056333;28;20028;-74
2021/07/06 08:11:48;;;;;;;0.10;0.00;;;21.70;99.90;;;;;;5074611;28;20126;-74
2021/07/06 08:14:14;;;;;;;0.38;0.00;;;21.70;99.90;;;;;;5074868;28;20036;-74
2021/07/06 08:16:40;;;;;;;4.00;0.00;;;21.50;99.90;;;;;;5074799;28;20472;-75
2021/07/06 08:19:06;;;;;;;0.20;0.00;;;21.30;99.90;;;;;;5075180;28;20116;-75
2021/07/06 08:21:32;;;;;;;1.85;0.00;;;21.20;99.90;;;;;;5056641;28;20074;-74
2021/07/06 08:24:00;;;;;;;3.20;0.00;;;21.30;99.90;;;;;;5074646;28;20025;-74
2021/07/06 08:26:26;;;;;;;0.80;0.00;;;21.30;99.50;;;;;;5074863;28;20036;-74
2021/07/06 08:28:53;;;;;;;2.63;0.75;;;21.20;98.20;;;;;;5074459;28;20074;-74
2021/07/06 08:31:19;;;;;;;2.55;0.00;;;21.10;98.10;;;;;;5074216;28;20025;-74
2021/07/06 08:33:45;;;;;;;1.85;0.10;;;20.90;98.40;;;;;;5074425;28;20024;-74
2021/07/06 08:36:11;;;;;;;2.78;0.00;;;21.30;96.70;;;;;;5074363;28;20381;-74
2021/07/06 08:38:39;;;;;;;7.50;0.22;;;21.40;96.90;;;;;;5074382;28;20028;-75
2021/07/06 08:41:05;;;;;;;0.57;0.00;;;21.50;95.40;;;;;;5074226;28;20482;-75
2021/07/06 08:43:31;;;;;;;2.13;0.00;;;21.50;96.20;;;;;;5056658;28;20435;-74
2021/07/06 08:46:00;;;;;;;1.08;0.00;;;21.50;92.90;;;;;;5074300;28;20025;-74
2021/07/06 08:48:30;;;;;;;3.25;0.20;;;21.30;93.90;;;;;;5056511;28;20493;-77
2021/07/06 08:50:58;;;;;;;0.25;0.00;;;21.40;94.90;;;;;;5078675;28;20031;-80
2021/07/06 08:53:33;;;;;;;1.25;0.00;;;21.50;94.50;;;;;;5060732;28;20028;-80
2021/07/06 08:55:59;;;;;;;4.47;0.90;;;21.40;96.00;;;;;;5077635;28;20469;-79
2021/07/06 08:58:30;;;;;;;2.45;0.70;;;21.50;95.50;;;;;;5077480;28;20021;-79
2021/07/06 09:00:56;;;;;;;2.13;0.00;;;21.40;93.30;;;;;;5075745;28;20056;-80
2021/07/06 09:03:21;;;;;;;0.32;0.00;;;21.40;94.80;;;;;;5058582;28;20501;-80
2021/07/06 09:06:00;;;;;;;1.90;0.00;;;21.30;93.90;;;;;;5077531;28;20032;-80
2021/07/06 09:08:28;;;;;;;;;;;21.20;95.50;;;;;;5059734;28;20043;-80
2021/07/06 09:10:53;;;;;;;0.00;0.00;;;21.20;94.40;;;;;;5076011;28;19932;-80
2021/07/06 09:13:27;;;;;;;2.05;0.00;;;21.20;95.30;;;;;;5069991;22;20102;-78
2021/07/06 09:15:56;;;;;;;3.10;0.13;;;21.20;95.70;;;;;;5069458;28;20029;-78
2021/07/06 09:18:23;;;;;;;2.75;0.00;;;21.40;94.10;;;;;;5052832;28;20017;-79
2021/07/06 09:21:07;;;;;;;0.68;0.00;;;21.50;93.40;;;;;;5053256;28;20032;-79
2021/07/06 09:23:49;;;;;;;1.75;0.00;;;21.70;94.30;;;;;;5052923;28;20089;-79
2021/07/06 09:26:18;;;;;;;0.75;0.00;;;22.00;92.20;;;;;;5071183;28;20043;-79
2021/07/06 09:28:47;;;;;;;5.75;0.08;;;22.10;85.80;;;;;;5042261;28;20506;-80
2021/07/06 09:31:14;;;;;;;1.33;0.00;;;21.90;84.20;;;;;;5057861;28;20500;-80
2021/07/06 09:34:06;;;;;;;0.35;0.00;;;21.60;85.30;;;;;;5068337;28;20031;-78
2021/07/06 09:36:38;;;;;;;5.72;0.60;;;21.40;86.10;;;;;;5070302;28;20021;-78
2021/07/06 09:39:13;;;;;;;1.10;0.00;;;21.50;85.80;;;;;;5053420;28;20435;-78
2021/07/06 09:42:00;;;;;;;5.63;0.00;;;21.50;85.70;;;;;;5052014;28;20021;-78
2021/07/06 09:44:41;;;;;;;0.20;0.00;;;21.50;84.70;;;;;;5052831;28;20036;-79
2021/07/06 09:47:12;;;;;;;4.13;0.00;;;21.70;86.70;;;;;;5059779;28;20493;-80
2021/07/06 09:49:38;;;;;;;3.20;0.00;;;21.90;84.80;;;;;;5041440;28;20045;-80
2021/07/06 09:52:10;;;;;;;2.85;0.00;;;22.00;85.30;;;;;;5059469;28;20092;-80
2021/07/06 09:54:44;;;;;;;1.15;0.00;;;22.00;86.10;;;;;;5041582;28;20031;-80
2021/07/06 09:57:28;;;;;;;2.92;0.00;;;23.70;84.30;;;;;;5041119;28;20504;-79
2021/07/06 10:00:07;;;;;;;0.22;0.00;;;21.80;85.70;;;;;;5037902;28;20071;-78
2021/07/06 10:02:34;;;;;;;0.73;0.10;;;21.40;83.90;;;;;;5037640;28;20021;-78
2021/07/06 10:05:04;;;;;;;2.92;0.20;;;21.20;85.10;;;;;;5054778;28;20025;-78
2021/07/06 10:07:29;;;;;;;4.80;0.00;;;21.10;86.70;;;;;;5055239;28;20394;-78
2021/07/06 10:09:57;;;;;;;5.25;0.00;;;21.20;85.90;;;;;;5055639;28;20071;-79
2021/07/06 10:12:24;;;;;;;1.77;0.00;;;21.10;85.50;;;;;;5055776;28;20060;-78
2021/07/06 10:14:51;;;;;;;1.65;0.20;;;21.00;84.90;;;;;;5041015;28;20275;-78
2021/07/06 10:17:17;;;;;;;2.67;0.08;;;21.10;85.30;;;;;;5058882;28;20036;-78
2021/07/06 10:19:45;;;;;;;2.03;0.00;;;21.20;87.20;;;;;;5059684;28;20036;-79
2021/07/06 10:22:16;;;;;;;2.30;0.00;;;21.50;84.70;;;;;;5060515;28;20028;-82
2021/07/06 10:24:46;;;;;;;3.45;0.10;;;21.60;82.60;;;;;;5042302;28;20021;-80
2021/07/06 10:27:24;;;;;;;0.30;0.00;;;21.60;85.20;;;;;;5042821;28;20020;-81
2021/07/06 10:30:16;;;;;;;1.13;0.00;;;21.50;82.00;;;;;;5061008;28;20013;-81
2021/07/06 10:32:50;;;;;;;5.25;0.00;;;21.40;83.70;;;;;;5042629;28;20036;-82
2021/07/06 10:35:17;;;;;;;2.45;0.00;;;21.50;82.50;;;;;;5042528;28;20021;-82
2021/07/06 10:37:43;;;;;;;2.63;0.45;;;21.20;83.40;;;;;;5061148;28;20478;-82
2021/07/06 10:40:21;;;;;;;3.80;0.00;;;21.10;84.40;;;;;;5060774;28;20039;-82
2021/07/06 10:42:52;;;;;;;0.22;0.00;;;21.00;85.10;;;;;;5061420;28;20025;-82
2021/07/06 10:45:34;;;;;;;4.80;0.00;;;21.30;87.50;;;;;;5043695;28;20067;-82
2021/07/06 10:48:00;;;;;;;1.98;0.00;;;21.30;87.10;;;;;;5061300;28;20076;-77
2021/07/06 10:50:32;;;;;;;6.05;0.10;;;21.40;86.30;;;;;;5042677;28;20032;-81
2021/07/06 10:53:16;;;;;;;4.00;0.00;;;21.40;85.40;;;;;;5041480;28;20470;-81
2021/07/06 10:55:43;;;;;;;2.53;0.32;;;21.20;83.80;;;;;;5042296;28;20060;-81
2021/07/06 10:58:10;;;;;;;1.42;0.00;;;20.90;84.80;;;;;;5059373;28;20025;-82
2021/07/06 11:00:44;;;;;;;5.93;0.30;;;21.00;87.60;;;;;;5059962;28;20421;-82
2021/07/06 11:03:18;;;;;;;6.13;0.60;;;21.30;85.50;;;;;;5042196;28;20025;-81
2021/07/06 11:05:44;;;;;;;0.65;0.13;;;21.80;85.20;;;;;;5041826;28;20389;-81
2021/07/06 11:08:41;;;;;;;3.97;0.00;;;22.10;84.00;;;;;;5041893;28;20013;-81
2021/07/06 11:11:08;;;;;;;5.70;0.00;;;22.20;80.20;;;;;;5041486;28;20021;-82
2021/07/06 11:13:34;;;;;;;1.95;0.00;;;22.50;79.70;;;;;;5057824;28;20036;-79
2021/07/06 11:16:02;;;;;;;0.75;0.00;;;22.30;76.50;;;;;;5039442;28;20032;-79
2021/07/06 11:18:41;;;;;;;0.15;0.00;;;22.10;74.90;;;;;;5040903;28;20025;-79
2021/07/06 11:21:31;;;;;;;2.40;0.30;;;21.80;77.70;;;;;;5038314;28;20551;-78
2021/07/06 11:24:14;;;;;;;3.60;0.00;;;21.50;76.40;;;;;;5056393;28;20074;-78
2021/07/06 11:26:41;;;;;;;0.73;0.00;;;21.20;79.40;;;;;;5038119;28;20025;-77
2021/07/06 11:29:06;;;;;;;0.80;0.05;;;21.00;81.50;;;;;;5056076;28;20025;-78
2021/07/06 11:31:32;;;;;;;3.03;0.00;;;20.90;80.60;;;;;;5038455;28;20135;-76
2021/07/06 11:33:58;;;;;;;1.30;0.00;;;20.90;81.00;;;;;;5055672;28;20470;-76
2021/07/06 11:36:25;;;;;;;4.68;0.13;;;21.00;80.20;;;;;;5055527;28;20032;-76
2021/07/06 11:38:55;;;;;;;1.87;0.00;;;21.20;84.40;;;;;;5055481;28;20074;-76
2021/07/06 11:41:23;;;;;;;1.40;0.00;;;21.40;82.20;;;;;;5055410;28;20333;-77
2021/07/06 11:43:49;;;;;;;0.77;0.10;;;21.60;78.40;;;;;;5055458;28;20067;-77
2021/07/06 11:46:26;;;;;;;2.25;0.00;;;21.70;78.80;;;;;;5037597;28;20025;-74
2021/07/06 11:48:52;;;;;;;2.08;0.00;;;21.70;79.70;;;;;;5037495;28;20414;-74
2021/07/06 11:51:20;;;;;;;1.48;0.05;;;21.70;79.40;;;;;;5055397;28;20029;-74
2021/07/06 11:53:54;;;;;;;1.45;0.00;;;21.80;80.00;;;;;;5037418;28;20025;-74
2021/07/06 11:56:26;;;;;;;1.50;0.00;;;21.90;80.10;;;;;;5055893;28;20098;-74
2021/07/06 11:58:52;;;;;;;0.93;0.00;;;21.90;81.00;;;;;;5055837;28;20025;-74
2021/07/06 12:01:17;;;;;;;3.50;0.15;;;21.70;79.90;;;;;;5054964;28;20501;-75
2021/07/06 12:03:43;;;;;;;3.83;0.32;;;21.80;80.40;;;;;;5037063;28;20059;-74
2021/07/06 12:06:12;;;;;;;3.00;0.00;;;21.70;81.90;;;;;;5055056;28;20028;-74
2021/07/06 12:08:39;;;;;;;2.67;0.00;;;21.70;79.90;;;;;;5037206;28;20021;-74
2021/07/06 12:11:14;;;;;;;3.63;0.00;;;21.40;80.40;;;;;;5037176;28;20524;-75
2021/07/06 12:13:43;;;;;;;4.10;0.30;;;21.10;80.10;;;;;;5054866;28;20052;-74
2021/07/06 12:16:13;;;;;;;2.55;0.00;;;20.90;80.80;;;;;;5054932;28;20029;-76
2021/07/06 12:19:08;;;;;;;0.95;0.15;;;20.70;81.30;;;;;;5036831;28;20032;-76
2021/07/06 12:21:40;;;;;;;1.65;0.00;;;20.70;85.80;;;;;;5036808;28;20123;-76
2021/07/06 12:24:09;;;;;;;1.42;0.00;;;20.60;85.00;;;;;;5054685;28;20028;-77
2021/07/06 12:26:40;;;;;;;1.40;0.00;;;20.60;86.70;;;;;;5036776;28;20394;-76
2021/07/06 12:29:06;;;;;;;6.50;0.00;;;20.50;85.70;;;;;;5054612;28;20021;-76
2021/07/06 12:31:37;;;;;;;1.00;0.00;;;20.40;85.10;;;;;;5036451;28;20031;-77
2021/07/06 12:34:11;;;;;;;2.08;0.00;;;20.40;86.10;;;;;;5037242;28;20056;-77
2021/07/06 12:36:54;;;;;;;2.40;0.00;;;20.20;85.50;;;;;;5036600;28;20024;-76
2021/07/06 12:39:31;;;;;;;1.20;0.00;;;20.20;87.00;;;;;;5054444;28;20036;-76
2021/07/06 12:42:04;;;;;;;3.80;0.00;;;20.10;85.80;;;;;;5054501;28;20129;-76
2021/07/06 12:44:36;;;;;;;0.50;0.10;;;20.00;87.30;;;;;;5036407;28;20028;-76
2021/07/06 12:47:12;;;;;;;1.88;0.05;;;20.00;88.30;;;;;;5054701;28;20070;-78
2021/07/06 12:49:57;;;;;;;2.58;0.00;;;20.10;89.70;;;;;;5054325;28;20025;-77
2021/07/06 12:52:25;;;;;;;2.17;0.30;;;20.30;88.80;;;;;;5054896;28;20027;-77